Time;durP1;ratioP1;P1;durP2;ratioP2;P2;SDS_P1;SDS_P2;PMS_P1;PMS_P2;Temp;Humidity;BMP_temperature;BMP_pressure;BME280_temperature;BME280_humidity;BME280_pressure;Samples;Min_cycle;Max_cycle;Signal;HPM_P1;HPM_P2
2021/09/05 00:00:27;;;;;;;13.48;7.97;;;;;;;;;;5038582;28;20495;-85
2021/09/05 00:02:52;;;;;;;10.48;7.30;;;;;;;;;;5044665;28;20021;-85
2021/09/05 00:05:18;;;;;;;10.73;7.22;;;;;;;;;;5047286;28;20163;-84
2021/09/05 00:07:43;;;;;;;11.82;7.20;;;;;;;;;;5050288;28;20024;-84
2021/09/05 00:10:09;;;;;;;13.40;8.18;;;;;;;;;;5033862;28;20032;-85
2021/09/05 00:12:34;;;;;;;10.93;7.30;;;;;;;;;;5049627;28;20017;-86
2021/09/05 00:15:00;;;;;;;14.98;7.80;;;;;;;;;;5041206;28;20029;-84
2021/09/05 00:17:26;;;;;;;12.02;8.00;;;;;;;;;;5046551;28;20017;-85
2021/09/05 00:19:51;;;;;;;12.73;7.63;;;;;;;;;;5050384;28;20467;-86
2021/09/05 00:22:16;;;;;;;15.67;7.97;;;;;;;;;;5045889;28;20099;-86
2021/09/05 00:24:41;;;;;;;12.50;7.72;;;;;;;;;;5050285;28;20032;-86
2021/09/05 00:27:07;;;;;;;13.73;8.55;;;;;;;;;;5043484;28;20044;-86
2021/09/05 00:29:32;;;;;;;13.13;7.50;;;;;;;;;;5033098;28;20027;-86
2021/09/05 00:31:57;;;;;;;11.15;7.00;;;;;;;;;;5046221;28;20256;-86
2021/09/05 00:34:23;;;;;;;14.23;7.30;;;;;;;;;;5048087;28;20013;-85
2021/09/05 00:36:51;;;;;;;10.00;6.57;;;;;;;;;;5041503;28;20274;-85
2021/09/05 00:39:16;;;;;;;12.52;7.63;;;;;;;;;;5047938;28;20383;-86
2021/09/05 00:41:42;;;;;;;11.00;7.50;;;;;;;;;;5032733;28;20025;-86
2021/09/05 00:44:08;;;;;;;12.17;7.20;;;;;;;;;;5050950;28;20098;-84
2021/09/05 00:46:34;;;;;;;10.57;6.68;;;;;;;;;;5047440;28;20268;-85
2021/09/05 00:48:59;;;;;;;10.65;6.75;;;;;;;;;;5050410;28;20407;-84
2021/09/05 00:51:33;;;;;;;11.82;7.70;;;;;;;;;;5048238;28;20014;-84
2021/09/05 00:53:59;;;;;;;10.98;7.38;;;;;;;;;;5045899;28;20448;-85
2021/09/05 00:56:27;;;;;;;11.85;7.63;;;;;;;;;;5051345;28;20185;-84
2021/09/05 00:58:53;;;;;;;13.75;9.02;;;;;;;;;;5044286;28;20495;-85
2021/09/05 01:01:18;;;;;;;12.63;7.55;;;;;;;;;;5049917;28;20391;-85
2021/09/05 01:03:43;;;;;;;12.73;7.93;;;;;;;;;;5043539;28;20036;-84
2021/09/05 01:06:09;;;;;;;15.27;7.70;;;;;;;;;;5049900;28;20029;-84
2021/09/05 01:08:34;;;;;;;11.80;7.80;;;;;;;;;;5038598;28;20268;-85
2021/09/05 01:11:00;;;;;;;15.82;8.38;;;;;;;;;;5050353;28;20047;-85
2021/09/05 01:13:25;;;;;;;14.50;7.60;;;;;;;;;;5044421;28;20029;-85
2021/09/05 01:15:50;;;;;;;10.77;7.10;;;;;;;;;;5038394;28;20299;-84
2021/09/05 01:18:16;;;;;;;11.40;6.77;;;;;;;;;;5032121;28;20017;-84
2021/09/05 01:20:41;;;;;;;9.98;6.53;;;;;;;;;;5044362;28;20299;-84
2021/09/05 01:23:06;;;;;;;11.80;7.20;;;;;;;;;;5024268;28;20079;-85
2021/09/05 01:25:32;;;;;;;12.40;7.73;;;;;;;;;;5042992;28;20024;-85
2021/09/05 01:27:57;;;;;;;11.60;7.73;;;;;;;;;;5046653;28;20036;-85
2021/09/05 01:30:22;;;;;;;11.00;6.70;;;;;;;;;;5044934;28;20782;-85
2021/09/05 01:32:47;;;;;;;11.73;8.00;;;;;;;;;;5048328;28;20108;-85
2021/09/05 01:35:13;;;;;;;9.97;6.90;;;;;;;;;;5050167;28;20300;-85
2021/09/05 01:37:38;;;;;;;12.43;7.43;;;;;;;;;;5047075;28;20268;-85
2021/09/05 01:40:04;;;;;;;10.27;7.32;;;;;;;;;;5045980;28;20068;-85
2021/09/05 01:42:29;;;;;;;10.70;7.43;;;;;;;;;;5016895;28;20083;-85
2021/09/05 01:44:54;;;;;;;12.15;7.22;;;;;;;;;;5047235;28;20040;-84
2021/09/05 01:47:20;;;;;;;11.48;7.75;;;;;;;;;;5043146;28;20546;-85
2021/09/05 01:49:45;;;;;;;11.45;7.47;;;;;;;;;;5050460;28;20117;-84
2021/09/05 01:52:10;;;;;;;11.45;7.45;;;;;;;;;;5045978;28;20468;-85
2021/09/05 01:54:36;;;;;;;9.73;6.03;;;;;;;;;;5046253;28;20052;-84
2021/09/05 01:57:01;;;;;;;11.30;7.55;;;;;;;;;;5049137;28;20056;-85
2021/09/05 01:59:26;;;;;;;11.10;7.47;;;;;;;;;;5016519;28;20033;-84
2021/09/05 02:01:52;;;;;;;11.20;7.57;;;;;;;;;;5040996;28;20037;-85
2021/09/05 02:04:17;;;;;;;13.57;7.40;;;;;;;;;;5049936;28;20028;-84
2021/09/05 02:06:42;;;;;;;12.02;7.22;;;;;;;;;;5042581;28;20708;-84
2021/09/05 02:09:08;;;;;;;11.85;8.18;;;;;;;;;;5049053;28;20025;-84
2021/09/05 02:11:33;;;;;;;14.63;7.40;;;;;;;;;;5045797;28;20044;-84
2021/09/05 02:13:58;;;;;;;12.18;7.43;;;;;;;;;;5045774;28;20484;-85
2021/09/05 02:16:24;;;;;;;14.15;7.38;;;;;;;;;;5047010;28;20020;-84
2021/09/05 02:18:49;;;;;;;12.70;8.05;;;;;;;;;;5043616;28;20030;-84
2021/09/05 02:21:15;;;;;;;13.05;7.35;;;;;;;;;;5025164;28;20025;-84
2021/09/05 02:23:40;;;;;;;11.85;7.30;;;;;;;;;;5048933;28;20028;-84
2021/09/05 02:26:06;;;;;;;13.57;8.45;;;;;;;;;;5043443;28;20091;-85
2021/09/05 02:28:31;;;;;;;14.07;8.07;;;;;;;;;;5045828;28;20055;-85
2021/09/05 02:30:56;;;;;;;9.90;7.13;;;;;;;;;;5029979;28;20522;-85
2021/09/05 02:33:22;;;;;;;11.85;7.25;;;;;;;;;;5048607;28;20029;-86
2021/09/05 02:35:47;;;;;;;10.48;7.20;;;;;;;;;;5047260;28;20021;-84
2021/09/05 02:38:12;;;;;;;11.20;7.30;;;;;;;;;;5047202;28;20022;-85
2021/09/05 02:40:37;;;;;;;11.88;7.22;;;;;;;;;;5048800;28;20278;-85
2021/09/05 02:43:04;;;;;;;13.30;8.32;;;;;;;;;;5047034;28;20028;-85
2021/09/05 02:45:29;;;;;;;12.77;6.88;;;;;;;;;;5041236;28;20715;-84
2021/09/05 02:47:55;;;;;;;11.05;8.05;;;;;;;;;;5045242;28;20041;-85
2021/09/05 02:50:20;;;;;;;11.13;7.30;;;;;;;;;;5048145;28;20029;-85
2021/09/05 02:52:45;;;;;;;10.17;7.20;;;;;;;;;;5049012;28;20509;-84
2021/09/05 02:55:10;;;;;;;10.65;7.40;;;;;;;;;;5047377;28;20024;-84
2021/09/05 02:57:36;;;;;;;13.17;8.17;;;;;;;;;;5048139;28;20108;-85
2021/09/05 03:00:01;;;;;;;11.48;7.10;;;;;;;;;;5046988;28;20025;-85
2021/09/05 03:02:26;;;;;;;10.90;7.18;;;;;;;;;;5030457;28;20027;-85
2021/09/05 03:04:52;;;;;;;12.73;7.03;;;;;;;;;;5046715;28;20040;-85
2021/09/05 03:07:17;;;;;;;13.63;7.43;;;;;;;;;;5044694;28;20491;-84
2021/09/05 03:09:42;;;;;;;10.55;7.10;;;;;;;;;;5046752;28;20025;-84
2021/09/05 03:12:08;;;;;;;11.73;7.60;;;;;;;;;;5042054;28;20029;-85
2021/09/05 03:14:33;;;;;;;11.07;7.50;;;;;;;;;;5047467;28;20024;-85
2021/09/05 03:16:58;;;;;;;10.77;7.67;;;;;;;;;;5048550;28;20013;-85
2021/09/05 03:19:24;;;;;;;10.43;6.88;;;;;;;;;;5045828;28;20259;-85
2021/09/05 03:21:49;;;;;;;12.48;7.35;;;;;;;;;;5048337;28;20021;-85
2021/09/05 03:24:15;;;;;;;17.30;7.73;;;;;;;;;;5047847;28;20025;-86
2021/09/05 03:26:40;;;;;;;12.20;8.23;;;;;;;;;;5046330;28;20264;-86
2021/09/05 03:29:06;;;;;;;12.95;7.15;;;;;;;;;;5046441;28;20056;-86
2021/09/05 03:31:31;;;;;;;10.95;7.38;;;;;;;;;;5052364;28;20013;-86
2021/09/05 03:33:57;;;;;;;10.48;6.75;;;;;;;;;;5046213;28;20029;-86
2021/09/05 03:36:22;;;;;;;12.57;8.38;;;;;;;;;;5043088;28;20048;-86
2021/09/05 03:38:47;;;;;;;10.57;8.20;;;;;;;;;;5023160;28;20013;-85
2021/09/05 03:41:13;;;;;;;13.05;7.72;;;;;;;;;;5049344;28;20343;-85
2021/09/05 03:43:38;;;;;;;9.53;6.43;;;;;;;;;;5047459;28;20491;-84
2021/09/05 03:46:03;;;;;;;11.75;7.05;;;;;;;;;;5050548;28;20271;-85
2021/09/05 03:48:30;;;;;;;12.27;7.07;;;;;;;;;;5043897;28;20034;-86
2021/09/05 03:50:55;;;;;;;13.27;7.00;;;;;;;;;;5047746;28;20025;-86
2021/09/05 03:53:20;;;;;;;11.07;7.37;;;;;;;;;;5051887;28;20029;-86
2021/09/05 03:55:46;;;;;;;10.73;6.45;;;;;;;;;;5051491;28;20275;-85
2021/09/05 03:58:11;;;;;;;9.73;6.57;;;;;;;;;;5049956;28;20101;-84
2021/09/05 04:00:36;;;;;;;11.27;6.93;;;;;;;;;;5048749;28;20071;-85
2021/09/05 04:03:02;;;;;;;10.57;6.78;;;;;;;;;;5048978;28;20021;-86
2021/09/05 04:05:27;;;;;;;13.02;7.60;;;;;;;;;;5046442;28;20094;-86
2021/09/05 04:10:30;;;;;;;11.25;7.05;;;;;;;;;;5044571;28;20379;-85
2021/09/05 04:12:56;;;;;;;13.10;7.70;;;;;;;;;;5048990;28;20013;-85
2021/09/05 04:15:22;;;;;;;9.93;6.55;;;;;;;;;;5047878;28;20468;-86
2021/09/05 04:17:47;;;;;;;12.35;7.68;;;;;;;;;;5027130;28;20119;-85
2021/09/05 04:20:13;;;;;;;11.00;7.25;;;;;;;;;;5051826;28;20037;-87
2021/09/05 04:22:38;;;;;;;14.10;7.82;;;;;;;;;;5021880;28;20021;-85
2021/09/05 04:25:04;;;;;;;11.60;7.57;;;;;;;;;;5045696;28;20460;-86
2021/09/05 04:27:30;;;;;;;13.02;7.10;;;;;;;;;;5044995;28;20025;-85
2021/09/05 04:29:55;;;;;;;10.57;6.53;;;;;;;;;;5048252;28;20162;-85
2021/09/05 04:32:21;;;;;;;15.18;7.90;;;;;;;;;;5051963;28;20052;-86
2021/09/05 04:34:50;;;;;;;10.40;7.47;;;;;;;;;;5028201;28;20487;-86
2021/09/05 04:37:18;;;;;;;11.15;7.80;;;;;;;;;;5027550;28;20026;-85
2021/09/05 04:39:44;;;;;;;11.45;8.23;;;;;;;;;;5051135;28;20426;-85
2021/09/05 04:42:10;;;;;;;10.45;7.15;;;;;;;;;;5045688;28;20021;-84
2021/09/05 04:44:36;;;;;;;11.10;6.68;;;;;;;;;;5048033;28;20029;-84
2021/09/05 04:47:02;;;;;;;11.18;8.00;;;;;;;;;;5047441;28;20023;-85
2021/09/05 04:49:27;;;;;;;10.50;7.22;;;;;;;;;;5052885;28;20618;-84
2021/09/05 04:51:52;;;;;;;10.20;7.37;;;;;;;;;;5051264;28;20029;-83
2021/09/05 04:54:17;;;;;;;13.13;7.40;;;;;;;;;;5049709;28;20267;-84
2021/09/05 04:56:43;;;;;;;10.13;7.03;;;;;;;;;;5025193;28;20741;-84
2021/09/05 04:59:08;;;;;;;10.32;7.28;;;;;;;;;;5031944;28;20313;-84
2021/09/05 05:01:34;;;;;;;10.82;7.10;;;;;;;;;;5051079;28;20028;-85
2021/09/05 05:03:59;;;;;;;11.90;6.73;;;;;;;;;;5045053;28;20040;-86
2021/09/05 05:06:25;;;;;;;11.60;7.20;;;;;;;;;;5043671;28;20793;-85
2021/09/05 05:08:50;;;;;;;10.37;7.03;;;;;;;;;;5040904;28;20029;-85
2021/09/05 05:11:16;;;;;;;12.52;7.60;;;;;;;;;;5048570;28;20025;-85
2021/09/05 05:13:42;;;;;;;12.57;8.43;;;;;;;;;;5024898;28;20085;-85
2021/09/05 05:16:07;;;;;;;10.65;7.28;;;;;;;;;;5050157;28;20096;-87
2021/09/05 05:18:33;;;;;;;12.47;7.63;;;;;;;;;;5044477;28;20025;-85
2021/09/05 05:20:58;;;;;;;11.82;7.15;;;;;;;;;;5048516;28;20267;-86
2021/09/05 05:23:25;;;;;;;9.93;6.87;;;;;;;;;;5045691;28;20222;-87
2021/09/05 05:25:51;;;;;;;11.02;7.70;;;;;;;;;;5023081;28;20556;-86
2021/09/05 05:28:16;;;;;;;12.45;7.07;;;;;;;;;;5050086;28;20017;-86
2021/09/05 05:30:41;;;;;;;16.10;7.60;;;;;;;;;;5050198;28;20102;-86
2021/09/05 05:33:06;;;;;;;12.73;8.07;;;;;;;;;;5030537;28;20028;-85
2021/09/05 05:35:32;;;;;;;10.65;7.72;;;;;;;;;;5046577;28;20264;-85
2021/09/05 05:37:57;;;;;;;11.90;7.25;;;;;;;;;;5047205;28;20024;-86
2021/09/05 05:40:25;;;;;;;10.52;7.97;;;;;;;;;;5045104;28;20108;-85
2021/09/05 05:42:50;;;;;;;13.15;7.82;;;;;;;;;;5048029;28;20029;-84
2021/09/05 05:45:18;;;;;;;13.95;8.25;;;;;;;;;;5044581;28;20108;-84
2021/09/05 05:47:44;;;;;;;11.13;7.53;;;;;;;;;;5050022;28;20365;-85
2021/09/05 05:50:10;;;;;;;12.35;7.43;;;;;;;;;;5039547;28;20036;-85
2021/09/05 05:52:35;;;;;;;12.05;7.28;;;;;;;;;;5042100;28;20029;-85
2021/09/05 05:55:00;;;;;;;11.75;8.35;;;;;;;;;;5042741;28;20438;-86
2021/09/05 05:57:26;;;;;;;12.80;7.82;;;;;;;;;;5044380;28;20479;-86
2021/09/05 05:59:52;;;;;;;11.17;7.70;;;;;;;;;;5045624;28;20051;-85
2021/09/05 06:02:18;;;;;;;10.75;7.32;;;;;;;;;;5044625;28;20311;-86
2021/09/05 06:04:43;;;;;;;12.05;8.73;;;;;;;;;;5049297;28;20455;-86
2021/09/05 06:07:09;;;;;;;13.80;7.93;;;;;;;;;;5047533;28;20052;-85
2021/09/05 06:09:34;;;;;;;14.63;8.47;;;;;;;;;;5028091;28;20021;-85
2021/09/05 06:11:59;;;;;;;12.80;8.43;;;;;;;;;;5047590;28;20764;-86
2021/09/05 06:14:24;;;;;;;13.15;8.50;;;;;;;;;;5042764;28;20264;-86
2021/09/05 06:16:51;;;;;;;13.18;8.65;;;;;;;;;;5041189;28;20040;-86
2021/09/05 06:19:16;;;;;;;12.65;8.15;;;;;;;;;;5048067;28;20696;-85
2021/09/05 06:21:42;;;;;;;12.68;8.02;;;;;;;;;;5044191;28;20116;-87
2021/09/05 06:24:07;;;;;;;15.48;9.05;;;;;;;;;;5046202;28;20178;-85
2021/09/05 06:26:32;;;;;;;14.57;7.97;;;;;;;;;;5045717;28;20021;-84
2021/09/05 06:28:58;;;;;;;12.98;8.82;;;;;;;;;;5034437;28;20291;-85
2021/09/05 06:31:23;;;;;;;14.68;8.25;;;;;;;;;;5048929;28;20091;-85
2021/09/05 06:33:48;;;;;;;14.60;9.37;;;;;;;;;;5049142;28;20021;-85
2021/09/05 06:36:13;;;;;;;13.80;9.13;;;;;;;;;;5043652;28;20255;-85
2021/09/05 06:38:39;;;;;;;12.63;8.98;;;;;;;;;;5047432;28;20324;-85
2021/09/05 06:41:04;;;;;;;12.20;8.73;;;;;;;;;;5039389;28;20551;-89
2021/09/05 06:43:29;;;;;;;12.48;8.82;;;;;;;;;;5039215;28;20096;-85
2021/09/05 06:45:54;;;;;;;15.20;9.13;;;;;;;;;;5041378;28;20014;-87
2021/09/05 06:48:20;;;;;;;10.93;7.63;;;;;;;;;;5046008;28;20342;-84
2021/09/05 06:50:46;;;;;;;11.40;7.60;;;;;;;;;;5027858;28;20280;-85
2021/09/05 06:53:12;;;;;;;11.50;8.20;;;;;;;;;;5047125;28;20039;-85
2021/09/05 06:55:37;;;;;;;13.07;9.17;;;;;;;;;;5046029;28;20012;-86
2021/09/05 06:58:17;;;;;;;10.93;7.60;;;;;;;;;;5045719;28;20533;-94
2021/09/05 07:00:43;;;;;;;11.25;8.05;;;;;;;;;;5045572;28;20029;-91
2021/09/05 07:03:08;;;;;;;15.02;7.72;;;;;;;;;;5048443;28;20036;-89
2021/09/05 07:05:39;;;;;;;11.52;8.02;;;;;;;;;;5045054;28;20538;-92
2021/09/05 07:08:05;;;;;;;9.90;7.05;;;;;;;;;;5016511;28;20120;-85
2021/09/05 07:10:30;;;;;;;11.82;8.48;;;;;;;;;;5038992;28;20111;-86
2021/09/05 07:12:55;;;;;;;13.65;8.23;;;;;;;;;;5048776;28;20432;-88
2021/09/05 07:15:21;;;;;;;9.25;7.03;;;;;;;;;;5049811;28;20542;-89
2021/09/05 07:17:46;;;;;;;9.98;7.82;;;;;;;;;;5048935;28;20060;-88
2021/09/05 07:20:12;;;;;;;12.07;7.63;;;;;;;;;;5048816;28;20530;-89
2021/09/05 07:22:38;;;;;;;10.20;8.15;;;;;;;;;;5028727;28;20079;-87
2021/09/05 07:25:03;;;;;;;11.60;8.15;;;;;;;;;;5048543;28;20045;-87
2021/09/05 07:27:29;;;;;;;10.77;7.00;;;;;;;;;;5045319;28;20705;-89
2021/09/05 07:29:54;;;;;;;9.95;7.05;;;;;;;;;;5042434;28;20029;-85
2021/09/05 07:32:20;;;;;;;10.63;7.13;;;;;;;;;;5039260;28;20492;-79
2021/09/05 07:34:46;;;;;;;10.43;7.45;;;;;;;;;;5027141;28;20029;-78
2021/09/05 07:37:11;;;;;;;10.52;7.15;;;;;;;;;;5044930;28;20016;-83
2021/09/05 07:39:37;;;;;;;9.10;6.50;;;;;;;;;;5036722;28;20497;-82
2021/09/05 07:42:02;;;;;;;8.90;6.43;;;;;;;;;;5041672;28;20061;-80
2021/09/05 07:44:27;;;;;;;10.23;6.78;;;;;;;;;;5041871;28;20495;-79
2021/09/05 07:46:53;;;;;;;8.60;6.53;;;;;;;;;;5047585;28;20021;-79
2021/09/05 07:49:18;;;;;;;8.82;5.90;;;;;;;;;;5039385;28;20667;-80
2021/09/05 07:51:44;;;;;;;8.40;6.35;;;;;;;;;;5044764;28;20735;-81
2021/09/05 07:54:09;;;;;;;9.50;6.20;;;;;;;;;;5039613;28;20818;-78
2021/09/05 07:56:34;;;;;;;9.70;6.28;;;;;;;;;;5045439;28;20493;-78
2021/09/05 07:59:00;;;;;;;8.35;6.18;;;;;;;;;;5039219;28;20484;-77
2021/09/05 08:01:25;;;;;;;9.33;6.43;;;;;;;;;;5047219;28;20483;-78
2021/09/05 08:03:53;;;;;;;9.00;5.03;;;;;;;;;;5045479;28;20075;-79
2021/09/05 08:06:19;;;;;;;9.50;6.43;;;;;;;;;;5042938;28;20673;-78
2021/09/05 08:08:44;;;;;;;9.20;6.10;;;;;;;;;;5043988;28;20074;-78
2021/09/05 08:11:09;;;;;;;10.95;6.22;;;;;;;;;;5047695;28;20028;-77
2021/09/05 08:13:35;;;;;;;8.43;6.03;;;;;;;;;;5047556;28;20013;-77
2021/09/05 08:16:01;;;;;;;11.55;6.40;;;;;;;;;;5056049;28;20563;-78
2021/09/05 08:18:30;;;;;;;6.88;5.80;;;;;;;;;;5048888;28;20017;-78
2021/09/05 08:20:57;;;;;;;8.35;5.70;;;;;;;;;;5040564;28;20044;-77
2021/09/05 08:23:25;;;;;;;8.75;5.47;;;;;;;;;;5039335;28;20108;-78
2021/09/05 08:25:50;;;;;;;8.07;5.10;;;;;;;;;;5046482;28;20930;-78
2021/09/05 08:28:15;;;;;;;8.53;5.03;;;;;;;;;;5045778;28;20033;-78
2021/09/05 08:30:43;;;;;;;9.38;5.82;;;;;;;;;;5047205;28;20640;-79
2021/09/05 08:33:08;;;;;;;7.13;4.60;;;;;;;;;;5047908;28;20375;-77
2021/09/05 08:35:33;;;;;;;6.70;5.18;;;;;;;;;;5049449;28;20021;-79
2021/09/05 08:37:59;;;;;;;9.03;5.37;;;;;;;;;;5041455;28;20021;-79
2021/09/05 08:40:26;;;;;;;9.57;6.87;;;;;;;;;;5041413;28;20695;-78
2021/09/05 08:42:52;;;;;;;9.85;5.88;;;;;;;;;;5056582;28;20497;-78
2021/09/05 08:45:18;;;;;;;9.05;5.78;;;;;;;;;;5055087;28;20612;-77
2021/09/05 08:47:43;;;;;;;7.90;6.00;;;;;;;;;;5052510;28;20029;-78
2021/09/05 08:50:08;;;;;;;8.10;5.68;;;;;;;;;;5051004;28;20271;-78
2021/09/05 08:52:34;;;;;;;8.63;6.43;;;;;;;;;;5043918;28;20075;-78
2021/09/05 08:54:59;;;;;;;8.18;5.45;;;;;;;;;;5048874;28;20017;-77
2021/09/05 08:57:25;;;;;;;10.05;6.85;;;;;;;;;;5046494;28;20079;-78
2021/09/05 08:59:50;;;;;;;9.30;5.25;;;;;;;;;;5052071;28;20035;-80
2021/09/05 09:02:15;;;;;;;10.68;6.15;;;;;;;;;;5032841;28;20017;-79
2021/09/05 09:04:42;;;;;;;7.50;5.30;;;;;;;;;;5045952;28;20036;-80
2021/09/05 09:07:09;;;;;;;8.27;6.10;;;;;;;;;;5029643;28;20599;-78
2021/09/05 09:09:34;;;;;;;8.02;5.55;;;;;;;;;;5043509;28;20025;-79
2021/09/05 09:12:05;;;;;;;6.82;5.13;;;;;;;;;;5048797;28;20142;-78
2021/09/05 09:14:44;;;;;;;8.45;5.93;;;;;;;;;;5048582;28;20020;-78
2021/09/05 09:17:10;;;;;;;10.48;6.22;;;;;;;;;;5048866;28;20356;-77
2021/09/05 09:19:36;;;;;;;7.80;5.22;;;;;;;;;;5047157;28;20025;-79
2021/09/05 09:22:05;;;;;;;7.97;5.50;;;;;;;;;;5047328;28;20028;-79
2021/09/05 09:24:43;;;;;;;6.50;5.22;;;;;;;;;;5049858;28;20100;-79
2021/09/05 09:27:09;;;;;;;8.05;6.15;;;;;;;;;;5043617;28;20457;-79
2021/09/05 09:29:35;;;;;;;7.70;5.35;;;;;;;;;;5050122;28;20361;-79
2021/09/05 09:32:16;;;;;;;8.43;5.88;;;;;;;;;;5049962;28;20047;-79
2021/09/05 09:34:42;;;;;;;9.18;5.13;;;;;;;;;;5046326;28;20489;-78
2021/09/05 09:37:12;;;;;;;8.98;5.88;;;;;;;;;;5048089;28;20013;-78
2021/09/05 09:39:42;;;;;;;11.23;6.43;;;;;;;;;;5049763;28;20447;-79
2021/09/05 09:42:07;;;;;;;19.95;7.38;;;;;;;;;;5042366;28;20538;-79
2021/09/05 09:44:32;;;;;;;53.50;17.97;;;;;;;;;;5048558;28;20024;-78
2021/09/05 09:47:06;;;;;;;36.05;12.75;;;;;;;;;;5046215;28;20033;-77
2021/09/05 09:49:52;;;;;;;7.35;5.60;;;;;;;;;;5056261;28;20103;-91
2021/09/05 09:52:18;;;;;;;7.38;5.53;;;;;;;;;;5037042;28;20397;-85
2021/09/05 09:54:47;;;;;;;8.82;5.63;;;;;;;;;;5053496;28;20017;-93
2021/09/05 09:58:01;;;;;;;11.70;5.78;;;;;;;;;;5050177;28;20031;-93
2021/09/05 15:12:45;;;;;;;7.20;4.82;;;;;;;;;;4921789;29;20396;-80
2021/09/05 15:15:11;;;;;;;7.38;4.07;;;;;;;;;;4931056;29;20104;-77
2021/09/05 15:17:36;;;;;;;6.82;4.22;;;;;;;;;;4930278;29;20063;-78
2021/09/05 15:20:02;;;;;;;8.15;4.93;;;;;;;;;;4926270;29;20039;-79
2021/09/05 15:22:32;;;;;;;5.45;3.97;;;;;;;;;;4932670;29;20460;-80
2021/09/05 15:24:57;;;;;;;5.65;3.85;;;;;;;;;;4933478;29;20513;-84
2021/09/05 15:27:26;;;;;;;7.85;3.85;;;;;;;;;;4928945;29;20031;-80
2021/09/05 15:32:34;;;;;;;5.13;3.63;;;;;;;;;;4934377;29;20103;-81
2021/09/05 15:38:15;;;;;;;7.35;4.03;;;;;;;;;;4933307;29;20434;-83
2021/09/05 15:49:09;;;;;;;7.88;4.57;;;;;;;;;;4919090;29;20538;-80
2021/09/05 15:52:09;;;;;;;7.07;4.57;;;;;;;;;;4917455;29;20369;-79
2021/09/05 15:54:21;;;;;;;6.13;4.25;;;;;;;;;;4909553;29;20387;-76
2021/09/05 15:56:50;;;;;;;6.93;4.32;;;;;;;;;;4916500;29;20024;-80
2021/09/05 15:59:26;;;;;;;6.63;4.33;;;;;;;;;;4919241;29;20390;-81
2021/09/05 16:02:03;;;;;;;8.70;4.45;;;;;;;;;;4912901;29;20411;-83
2021/09/05 16:17:56;;;;;;;10.02;5.20;;;;;;;;;;4917448;29;20043;-83
2021/09/05 16:20:22;;;;;;;8.55;4.97;;;;;;;;;;4927127;29;20028;-80
2021/09/05 16:22:47;;;;;;;8.55;5.15;;;;;;;;;;4906877;29;20056;-80
2021/09/05 16:25:13;;;;;;;21.10;12.05;;;;;;;;;;4917611;29;20083;-78
2021/09/05 16:27:39;;;;;;;11.80;6.85;;;;;;;;;;4916311;29;20024;-87
2021/09/05 16:30:17;;;;;;;8.38;5.07;;;;;;;;;;4914777;29;20056;-84
2021/09/05 16:40:28;;;;;;;11.05;6.13;;;;;;;;;;4914563;29;20025;-87
2021/09/05 16:42:54;;;;;;;11.20;5.85;;;;;;;;;;4920630;29;20028;-86
2021/09/05 16:45:19;;;;;;;12.38;7.45;;;;;;;;;;4917068;29;20079;-92
2021/09/05 16:47:45;;;;;;;10.77;6.53;;;;;;;;;;4916724;29;20063;-92
2021/09/05 16:50:11;;;;;;;9.73;7.05;;;;;;;;;;4899515;29;20028;-91
2021/09/05 16:52:38;;;;;;;10.00;5.72;;;;;;;;;;4918437;29;20318;-88
2021/09/05 16:55:04;;;;;;;10.75;6.60;;;;;;;;;;4902742;29;20043;-90
2021/09/05 16:57:29;;;;;;;14.23;8.50;;;;;;;;;;4920429;29;20079;-88
2021/09/05 16:59:55;;;;;;;16.38;12.02;;;;;;;;;;4913906;29;20036;-91
2021/09/05 17:02:20;;;;;;;11.40;5.50;;;;;;;;;;4920021;29;20028;-90
2021/09/05 17:04:45;;;;;;;12.02;5.57;;;;;;;;;;4917129;29;20272;-85
2021/09/05 17:07:11;;;;;;;9.43;5.03;;;;;;;;;;4920238;29;20370;-84
2021/09/05 17:09:36;;;;;;;10.25;4.82;;;;;;;;;;4898300;29;20040;-88
2021/09/05 17:12:02;;;;;;;7.45;4.70;;;;;;;;;;4919148;29;20055;-87
2021/09/05 17:14:27;;;;;;;7.55;4.97;;;;;;;;;;4914805;29;20028;-87
2021/09/05 17:16:53;;;;;;;8.20;5.07;;;;;;;;;;4913695;29;20024;-89
2021/09/05 17:19:19;;;;;;;8.43;5.35;;;;;;;;;;4914656;29;20032;-87
2021/09/05 17:21:46;;;;;;;9.55;6.05;;;;;;;;;;4908826;29;20024;-88
2021/09/05 17:24:11;;;;;;;9.95;5.15;;;;;;;;;;4896138;29;20035;-87
2021/09/05 17:26:37;;;;;;;13.38;5.68;;;;;;;;;;4909104;29;20476;-89
2021/09/05 17:29:05;;;;;;;8.02;4.72;;;;;;;;;;4920313;29;20024;-87
2021/09/05 17:31:31;;;;;;;9.47;5.00;;;;;;;;;;4916843;29;20031;-87
2021/09/05 17:33:56;;;;;;;7.80;5.07;;;;;;;;;;4915526;29;20483;-87
2021/09/05 17:36:21;;;;;;;9.17;4.50;;;;;;;;;;4914866;29;20016;-86
2021/09/05 17:38:47;;;;;;;9.30;5.47;;;;;;;;;;4914648;29;20304;-89
2021/09/05 17:41:13;;;;;;;13.50;4.90;;;;;;;;;;4911734;29;20451;-91
2021/09/05 17:43:39;;;;;;;10.65;5.75;;;;;;;;;;4895573;29;20024;-92
2021/09/05 17:46:04;;;;;;;7.88;5.28;;;;;;;;;;4914208;29;20083;-88
2021/09/05 17:48:30;;;;;;;7.10;4.70;;;;;;;;;;4912625;29;20115;-87
2021/09/05 17:50:56;;;;;;;10.15;5.30;;;;;;;;;;4920883;29;20043;-89
2021/09/05 17:53:25;;;;;;;9.73;5.00;;;;;;;;;;4917664;29;20384;-94
2021/09/05 17:55:50;;;;;;;11.43;5.20;;;;;;;;;;4919520;29;20491;-85
2021/09/05 17:58:15;;;;;;;9.10;5.23;;;;;;;;;;4920872;29;20036;-86
2021/09/05 18:00:41;;;;;;;9.32;5.53;;;;;;;;;;4916089;29;20279;-83
2021/09/05 18:03:06;;;;;;;10.13;5.10;;;;;;;;;;4911123;29;20115;-87
2021/09/05 18:05:32;;;;;;;8.45;4.80;;;;;;;;;;4915940;29;20035;-94
2021/09/05 18:07:58;;;;;;;12.80;5.63;;;;;;;;;;4909619;29;20020;-88
2021/09/05 18:10:23;;;;;;;9.73;5.13;;;;;;;;;;4911362;29;20709;-84
2021/09/05 18:12:49;;;;;;;9.60;5.35;;;;;;;;;;4923061;29;20115;-88
2021/09/05 18:15:14;;;;;;;9.37;5.07;;;;;;;;;;4914078;29;20032;-89
2021/09/05 18:17:39;;;;;;;8.27;5.55;;;;;;;;;;4896964;29;20032;-85
2021/09/05 18:20:05;;;;;;;10.83;5.10;;;;;;;;;;4900718;29;20035;-88
2021/09/05 18:22:32;;;;;;;9.50;5.80;;;;;;;;;;4919850;29;20035;-90
2021/09/05 18:24:57;;;;;;;9.63;5.50;;;;;;;;;;4914706;29;20492;-84
2021/09/05 18:27:22;;;;;;;9.63;5.20;;;;;;;;;;4891531;29;20039;-86
2021/09/05 18:29:48;;;;;;;8.00;5.35;;;;;;;;;;4918085;29;20032;-91
2021/09/05 18:32:13;;;;;;;10.85;5.45;;;;;;;;;;4921085;29;20107;-93
2021/09/05 18:34:39;;;;;;;10.18;5.35;;;;;;;;;;4910462;29;20024;-86
2021/09/05 18:37:04;;;;;;;7.20;4.93;;;;;;;;;;4917552;29;20120;-87
2021/09/05 18:39:29;;;;;;;6.97;4.90;;;;;;;;;;4915024;29;20595;-84
2021/09/05 18:41:54;;;;;;;8.73;4.97;;;;;;;;;;4922634;29;20276;-85
2021/09/05 18:44:21;;;;;;;8.88;5.00;;;;;;;;;;4917296;29;20375;-85
2021/09/05 18:46:47;;;;;;;9.13;5.45;;;;;;;;;;4920992;29;20654;-84
2021/09/05 18:49:12;;;;;;;9.07;5.57;;;;;;;;;;4899634;29;20052;-84
2021/09/05 18:51:42;;;;;;;9.05;5.90;;;;;;;;;;4914951;29;20059;-84
2021/09/05 18:54:07;;;;;;;8.40;5.22;;;;;;;;;;4923720;29;20427;-86
2021/09/05 18:56:33;;;;;;;128.40;60.05;;;;;;;;;;4916854;29;20032;-90
2021/09/05 18:58:58;;;;;;;22.05;10.77;;;;;;;;;;4919323;29;20016;-87
2021/09/05 19:01:24;;;;;;;8.35;5.38;;;;;;;;;;4917619;29;20028;-86
2021/09/05 19:03:49;;;;;;;7.70;5.50;;;;;;;;;;4916801;29;20055;-86
2021/09/05 19:06:14;;;;;;;10.05;5.53;;;;;;;;;;4915456;29;20039;-86
2021/09/05 19:08:40;;;;;;;8.82;6.03;;;;;;;;;;4918702;29;20480;-90
2021/09/05 19:11:05;;;;;;;9.77;5.60;;;;;;;;;;4919286;29;20032;-87
2021/09/05 19:13:31;;;;;;;10.07;6.03;;;;;;;;;;4922317;29;20016;-88
2021/09/05 19:15:59;;;;;;;11.38;5.93;;;;;;;;;;4898395;29;20028;-90
2021/09/05 19:18:24;;;;;;;9.18;4.85;;;;;;;;;;4920029;29;20032;-90
2021/09/05 19:20:50;;;;;;;12.00;5.38;;;;;;;;;;4917544;29;20021;-88
2021/09/05 19:23:16;;;;;;;10.68;5.47;;;;;;;;;;4914940;29;20024;-87
2021/09/05 19:25:41;;;;;;;10.20;5.80;;;;;;;;;;4913037;29;20032;-86
2021/09/05 19:28:08;;;;;;;10.70;5.82;;;;;;;;;;4915004;29;20107;-87
2021/09/05 19:30:34;;;;;;;11.00;5.95;;;;;;;;;;4916606;29;20432;-88
2021/09/05 19:33:00;;;;;;;11.88;5.85;;;;;;;;;;4914185;29;20024;-88
2021/09/05 19:35:25;;;;;;;9.35;5.25;;;;;;;;;;4912833;29;20022;-89
2021/09/05 19:37:51;;;;;;;9.00;6.30;;;;;;;;;;4916826;29;20107;-86
2021/09/05 19:40:16;;;;;;;7.85;5.28;;;;;;;;;;4913247;29;20036;-87
2021/09/05 19:42:42;;;;;;;11.18;6.07;;;;;;;;;;4916268;29;20499;-87
2021/09/05 19:45:07;;;;;;;9.57;6.32;;;;;;;;;;4911419;29;20435;-87
2021/09/05 19:47:33;;;;;;;10.10;5.68;;;;;;;;;;4913404;29;20412;-86
2021/09/05 19:49:58;;;;;;;11.98;6.85;;;;;;;;;;4917859;29;20118;-90
2021/09/05 19:52:57;;;;;;;9.27;6.32;;;;;;;;;;4913862;29;20025;-93
2021/09/05 19:55:24;;;;;;;9.35;5.38;;;;;;;;;;4888302;29;20035;-87
2021/09/05 19:57:50;;;;;;;9.23;5.75;;;;;;;;;;4918936;29;20084;-88
2021/09/05 20:24:39;;;;;;;11.48;7.60;;;;;;;;;;4939597;29;20443;-89
2021/09/05 20:27:09;;;;;;;10.40;6.75;;;;;;;;;;4939411;29;20071;-92
2021/09/05 20:32:55;;;;;;;11.82;7.20;;;;;;;;;;4922509;29;20043;-91
2021/09/05 21:29:23;;;;;;;;;;;;;;;;;;;;;
2021/09/05 21:35:36;;;;;;;15.27;7.63;;;;;;;;;;4849260;29;20035;-88
2021/09/05 21:38:04;;;;;;;11.60;6.40;;;;;;;;;;4854545;29;20094;-88
2021/09/05 21:40:53;;;;;;;11.03;7.20;;;;;;;;;;4914682;29;20032;-88
2021/09/05 21:46:33;;;;;;;12.02;7.30;;;;;;;;;;4888245;29;20099;-87
2021/09/05 21:48:58;;;;;;;10.25;7.15;;;;;;;;;;4906882;29;20032;-88